Time;durP1;ratioP1;P1;durP2;ratioP2;P2;SDS_P1;SDS_P2;PMS_P1;PMS_P2;Temp;Humidity;BMP_temperature;BMP_pressure;BME280_temperature;BME280_humidity;BME280_pressure;Samples;Min_cycle;Max_cycle;Signal;HPM_P1;HPM_P2
2022/08/12 00:43:14;;;;;;;9.90;5.25;;;;;;;16.77;63.03;100390.25;6179938;22;20486;-73
2022/08/12 00:48:22;;;;;;;10.85;5.53;;;;;;;16.68;62.96;100389.19;6178616;22;20351;-73
2022/08/12 00:50:51;;;;;;;10.30;6.07;;;;;;;16.68;63.25;100393.72;6201389;22;20358;-74
2022/08/12 00:53:16;;;;;;;13.75;6.72;;;;;;;16.63;63.53;100386.03;6229735;22;20015;-72
2022/08/12 00:55:44;;;;;;;10.10;5.38;;;;;;;16.63;63.47;100393.25;6203729;22;20083;-77
2022/08/12 00:58:10;;;;;;;13.48;5.93;;;;;;;16.56;63.61;100382.13;6178199;22;20019;-71
2022/08/12 01:00:39;;;;;;;14.50;5.78;;;;;;;16.52;63.75;100391.44;6203139;22;20011;-76
2022/08/12 01:03:07;;;;;;;11.48;5.95;;;;;;;16.46;64.24;100388.41;6205043;22;20043;-75
2022/08/12 01:11:36;;;;;;;19.33;6.10;;;;;;;16.32;64.09;100386.88;6087345;23;20096;-71
2022/08/12 01:14:01;;;;;;;14.00;6.82;;;;;;;16.28;64.32;100386.25;6111524;23;20013;-71
2022/08/12 01:16:27;;;;;;;16.10;6.22;;;;;;;16.22;64.42;100397.53;6137140;23;20017;-69
2022/08/12 01:18:54;;;;;;;14.43;5.78;;;;;;;16.17;64.70;100391.69;6112112;23;20048;-71
2022/08/12 01:21:44;;;;;;;15.48;6.90;;;;;;;16.22;64.90;100388.63;6136682;23;20021;-70
2022/08/12 01:24:46;;;;;;;14.48;7.43;;;;;;;16.23;65.20;100396.56;6135690;23;20207;-69
2022/08/12 01:27:14;;;;;;;11.38;5.70;;;;;;;16.16;64.91;100394.50;6111939;23;20474;-66
2022/08/12 01:29:43;;;;;;;11.77;5.70;;;;;;;16.17;65.33;100401.59;6136494;23;20063;-70
2022/08/12 01:32:11;;;;;;;13.05;5.78;;;;;;;16.13;65.49;100405.53;6137129;23;20027;-63
2022/08/12 01:34:38;;;;;;;11.35;6.22;;;;;;;16.10;65.56;100401.25;6087481;23;20009;-72
2022/08/12 01:37:06;;;;;;;13.80;6.22;;;;;;;16.11;65.39;100408.34;6111939;23;20017;-72
2022/08/12 01:39:41;;;;;;;12.50;6.68;;;;;;;16.12;65.50;100404.66;6112021;23;20392;-74
2022/08/12 01:42:09;;;;;;;10.35;6.10;;;;;;;16.09;65.40;100394.16;6111629;23;20371;-71
2022/08/12 01:44:35;;;;;;;16.17;6.47;;;;;;;16.06;65.59;100396.22;6136907;23;20024;-75
2022/08/12 01:47:09;;;;;;;14.60;6.22;;;;;;;16.06;65.81;100401.59;6164185;22;20022;-68
2022/08/12 01:49:40;;;;;;;16.87;6.03;;;;;;;16.11;65.90;100402.97;6187923;22;20061;-75
2022/08/12 01:52:07;;;;;;;12.90;6.97;;;;;;;16.07;65.68;100412.25;6203019;22;20750;-73
2022/08/12 01:54:42;;;;;;;14.25;6.90;;;;;;;16.09;65.92;100401.38;6202978;22;20019;-75
2022/08/12 01:57:20;;;;;;;15.00;6.28;;;;;;;16.07;65.58;100398.81;6230245;22;20024;-68
2022/08/12 01:59:58;;;;;;;14.27;6.22;;;;;;;16.01;65.99;100399.31;6229510;22;20351;-69
2022/08/12 02:02:35;;;;;;;10.95;6.60;;;;;;;16.01;66.14;100403.84;6202174;22;20339;-68
2022/08/12 02:11:23;;;;;;;15.75;6.22;;;;;;;15.98;66.14;100402.25;6216848;22;20016;-74
2022/08/12 02:13:58;;;;;;;17.10;6.72;;;;;;;16.00;66.35;100402.97;6202919;22;20087;-74
2022/08/12 02:16:52;;;;;;;15.55;6.82;;;;;;;16.03;66.46;100407.25;6229645;22;20102;-72
2022/08/12 02:19:39;;;;;;;13.68;6.63;;;;;;;16.07;66.21;100400.63;6202149;22;20043;-71
2022/08/12 02:22:32;;;;;;;15.45;6.95;;;;;;;16.11;66.34;100402.97;6200980;22;20011;-71
2022/08/12 02:25:05;;;;;;;14.20;6.97;;;;;;;16.08;65.93;100400.50;6201735;22;20016;-61
2022/08/12 02:27:38;;;;;;;13.90;6.70;;;;;;;16.15;65.81;100403.53;6235619;22;20022;-62
2022/08/12 02:30:04;;;;;;;19.10;6.53;;;;;;;16.15;65.66;100415.16;6227287;22;20065;-60
2022/08/12 02:32:35;;;;;;;10.60;6.45;;;;;;;16.24;65.39;100413.56;6176918;22;20015;-61
2022/08/12 02:35:01;;;;;;;14.77;6.75;;;;;;;16.29;65.27;100414.03;6228975;22;20015;-67
2022/08/12 02:37:30;;;;;;;12.25;6.63;;;;;;;16.34;64.95;100415.38;6201558;22;20020;-67
2022/08/12 02:39:57;;;;;;;16.52;7.03;;;;;;;16.36;64.90;100419.78;6201481;22;20019;-71
2022/08/12 02:42:23;;;;;;;19.10;7.40;;;;;;;16.37;64.82;100425.00;6196779;22;20026;-72
2022/08/12 02:44:53;;;;;;;14.52;7.32;;;;;;;16.40;65.19;100422.06;6197148;22;20016;-72
2022/08/12 02:47:20;;;;;;;12.40;6.47;;;;;;;16.45;65.02;100419.00;6172432;22;20491;-68
2022/08/12 02:49:54;;;;;;;13.98;7.07;;;;;;;16.52;65.00;100425.56;6229403;22;20532;-73
2022/08/12 02:52:21;;;;;;;15.98;6.68;;;;;;;16.57;64.66;100420.66;6230835;22;20043;-71
2022/08/12 02:54:52;;;;;;;13.38;6.22;;;;;;;16.68;64.69;100417.94;6232221;22;20016;-69
2022/08/12 02:57:19;;;;;;;13.05;6.70;;;;;;;16.74;64.54;100422.81;6230143;22;20020;-73
2022/08/12 02:59:47;;;;;;;14.60;7.30;;;;;;;16.83;64.41;100421.16;6201657;22;20019;-72
2022/08/12 03:02:18;;;;;;;15.93;6.97;;;;;;;16.94;63.86;100419.25;6228827;22;20019;-72
2022/08/12 03:04:52;;;;;;;12.88;6.18;;;;;;;17.06;63.96;100426.28;6229120;22;20042;-71
2022/08/12 03:07:28;;;;;;;19.43;6.80;;;;;;;17.17;63.30;100419.13;6228830;22;20020;-68
2022/08/12 03:10:01;;;;;;;14.57;7.40;;;;;;;17.31;63.44;100427.72;6201741;22;20254;-72
2022/08/12 03:12:26;;;;;;;16.90;6.72;;;;;;;17.41;62.87;100422.38;6228929;22;20016;-71
2022/08/12 03:14:54;;;;;;;20.08;7.10;;;;;;;17.54;62.78;100422.16;6228615;22;20403;-70
2022/08/12 03:17:27;;;;;;;14.07;6.72;;;;;;;17.71;62.41;100422.44;6201622;22;20012;-71
2022/08/12 03:19:52;;;;;;;16.52;7.72;;;;;;;17.82;62.07;100420.63;6228316;22;20015;-72
2022/08/12 03:22:19;;;;;;;12.30;6.45;;;;;;;17.94;61.40;100414.97;6177896;22;20011;-72
2022/08/12 03:24:44;;;;;;;9.70;6.07;;;;;;;18.06;61.32;100413.84;6203840;22;20016;-72
2022/08/12 03:27:12;;;;;;;16.73;7.25;;;;;;;18.24;60.86;100421.28;6203294;22;20328;-68
2022/08/12 03:29:37;;;;;;;16.20;6.53;;;;;;;18.35;60.18;100413.06;6203829;22;20534;-67
2022/08/12 03:32:03;;;;;;;12.95;6.53;;;;;;;18.47;59.89;100420.03;6230508;22;20474;-71
2022/08/12 03:34:32;;;;;;;12.35;7.05;;;;;;;18.58;59.56;100406.41;6202967;22;20515;-70
2022/08/12 03:36:59;;;;;;;25.77;8.32;;;;;;;18.70;58.73;100415.22;6178699;22;20016;-63
2022/08/12 03:42:06;;;;;;;17.10;7.38;;;;;;;18.97;58.53;100409.94;6203959;22;20015;-68
2022/08/12 04:01:51;;;;;;;25.45;7.68;;;;;;;20.20;54.97;100413.34;6203256;22;20138;-62
2022/08/12 04:04:16;;;;;;;16.50;7.88;;;;;;;20.39;54.79;100415.94;6203375;22;20012;-61
2022/08/12 04:06:46;;;;;;;16.15;7.68;;;;;;;20.59;54.23;100413.91;6203408;22;20023;-61
2022/08/12 04:09:12;;;;;;;16.65;7.20;;;;;;;20.79;53.92;100415.44;6203297;22;20516;-61
2022/08/12 04:14:26;;;;;;;14.48;7.38;;;;;;;21.31;53.24;100423.69;6203305;22;20342;-62
2022/08/12 04:16:51;;;;;;;21.95;8.00;;;;;;;21.56;52.46;100416.53;6203260;22;20015;-62
2022/08/12 04:19:17;;;;;;;16.95;6.97;;;;;;;21.85;52.24;100422.44;6177995;22;20011;-62
2022/08/12 04:21:43;;;;;;;20.00;7.38;;;;;;;22.15;51.62;100422.91;6230239;22;20015;-62
2022/08/12 04:24:09;;;;;;;12.32;7.68;;;;;;;22.40;50.61;100422.81;6230121;22;20016;-61
2022/08/12 04:26:38;;;;;;;17.73;7.90;;;;;;;22.69;47.89;100427.78;6152504;22;20015;-62
2022/08/12 04:29:03;;;;;;;12.82;7.95;;;;;;;22.97;46.92;100417.47;6203079;22;20041;-61
2022/08/12 04:31:35;;;;;;;14.63;8.23;;;;;;;23.30;46.24;100426.44;6177419;22;20015;-62
2022/08/12 04:34:00;;;;;;;13.68;6.68;;;;;;;23.65;45.01;100421.63;6202682;22;20512;-62
2022/08/12 04:36:25;;;;;;;14.63;8.00;;;;;;;23.99;43.72;100424.06;6230109;22;20050;-62
2022/08/12 04:38:52;;;;;;;13.65;7.65;;;;;;;24.31;42.87;100420.34;6230141;22;20060;-62
2022/08/12 04:41:18;;;;;;;14.27;7.55;;;;;;;24.58;42.21;100422.56;6229938;22;20042;-61
2022/08/12 04:43:43;;;;;;;16.25;7.97;;;;;;;24.88;41.89;100418.91;6203006;22;20434;-61
2022/08/12 04:46:07;;;;;;;25.77;7.70;;;;;;;25.10;41.49;100410.91;6202893;22;20478;-63
2022/08/12 04:48:32;;;;;;;17.60;7.18;;;;;;;25.45;40.29;100423.88;6177805;22;20349;-62
2022/08/12 04:50:57;;;;;;;23.20;8.25;;;;;;;25.67;39.25;100420.25;6230068;22;20026;-62
2022/08/12 04:53:22;;;;;;;11.73;7.35;;;;;;;25.91;38.33;100416.38;6203147;22;20107;-62
2022/08/12 04:55:47;;;;;;;14.50;8.15;;;;;;;26.11;38.03;100422.09;6177578;22;20474;-62
2022/08/12 04:58:12;;;;;;;10.05;7.25;;;;;;;26.30;37.31;100416.03;6229979;22;20474;-62
2022/08/12 05:00:38;;;;;;;10.23;7.63;;;;;;;26.44;36.63;100414.31;6177337;22;20454;-62
2022/08/12 05:03:05;;;;;;;13.77;7.65;;;;;;;26.50;36.63;100421.75;6177258;22;20525;-63
2022/08/12 05:05:30;;;;;;;15.63;7.50;;;;;;;26.67;36.31;100420.44;6202777;22;20012;-61
2022/08/12 05:07:55;;;;;;;11.15;6.53;;;;;;;26.86;35.46;100420.84;6177667;22;20011;-67
2022/08/12 05:10:20;;;;;;;14.48;6.60;;;;;;;27.09;34.76;100416.88;6229881;22;20018;-66
2022/08/12 05:12:53;;;;;;;11.27;7.07;;;;;;;27.19;35.03;100421.19;6229692;22;20454;-66
2022/08/12 05:15:18;;;;;;;12.73;6.63;;;;;;;27.09;35.17;100413.28;6229935;22;20019;-66
2022/08/12 05:17:43;;;;;;;13.38;6.93;;;;;;;27.13;34.90;100411.00;6177560;22;20098;-68
2022/08/12 05:20:10;;;;;;;14.52;6.85;;;;;;;27.18;35.05;100417.59;6202768;22;20019;-70
2022/08/12 05:22:35;;;;;;;12.35;6.70;;;;;;;27.11;34.98;100420.25;6229660;22;20019;-68
2022/08/12 05:25:00;;;;;;;11.20;7.28;;;;;;;27.06;35.31;100422.75;6229610;22;20015;-63
2022/08/12 05:27:24;;;;;;;12.13;6.22;;;;;;;27.07;35.15;100421.72;6229853;22;20023;-61
2022/08/12 05:29:49;;;;;;;16.90;7.05;;;;;;;27.07;35.12;100418.13;6202728;22;20015;-62
2022/08/12 05:32:19;;;;;;;12.27;6.68;;;;;;;27.13;35.55;100416.47;6202625;22;20026;-61
2022/08/12 05:34:44;;;;;;;10.13;6.40;;;;;;;27.23;34.75;100414.25;6202874;22;20011;-63
2022/08/12 05:37:09;;;;;;;11.13;6.25;;;;;;;27.26;34.48;100419.31;6177135;22;20019;-63
2022/08/12 05:39:34;;;;;;;10.82;6.30;;;;;;;27.32;34.23;100415.78;6177182;22;20022;-64
2022/08/12 05:41:58;;;;;;;10.50;5.22;;;;;;;27.44;34.00;100411.44;6229520;22;20023;-62
2022/08/12 05:44:23;;;;;;;6.43;5.25;;;;;;;27.72;32.60;100417.78;6202102;22;20065;-63
2022/08/12 05:46:48;;;;;;;7.07;5.55;;;;;;;28.03;32.34;100414.56;6202315;22;20015;-63
2022/08/12 05:49:12;;;;;;;11.13;5.60;;;;;;;28.38;31.87;100412.63;6229269;22;20043;-62
2022/08/12 05:51:38;;;;;;;11.50;5.72;;;;;;;28.69;31.43;100411.19;6202170;22;20016;-62
2022/08/12 05:54:04;;;;;;;7.05;5.07;;;;;;;29.05;31.03;100414.44;6202385;22;20381;-62
2022/08/12 05:56:35;;;;;;;8.77;5.90;;;;;;;29.50;30.63;100417.38;6175322;22;20512;-62
2022/08/12 05:59:01;;;;;;;12.80;5.07;;;;;;;29.93;30.00;100414.94;6151466;22;20046;-62
2022/08/12 06:01:28;;;;;;;11.18;5.80;;;;;;;30.29;29.24;100411.66;6201113;22;20015;-63
2022/08/12 06:03:53;;;;;;;6.63;5.35;;;;;;;30.74;28.35;100414.38;6228834;22;20015;-63
2022/08/12 06:06:19;;;;;;;12.88;5.25;;;;;;;30.83;27.53;100419.41;6201953;22;20015;-62
2022/08/12 06:08:47;;;;;;;15.18;5.32;;;;;;;31.01;26.84;100415.91;6228652;22;20099;-63
2022/08/12 06:11:12;;;;;;;10.55;5.70;;;;;;;31.45;27.06;100416.81;6176151;22;20027;-62
2022/08/12 06:13:37;;;;;;;10.60;6.22;;;;;;;31.83;26.74;100419.41;6202511;22;20012;-63
2022/08/12 06:16:02;;;;;;;9.65;5.70;;;;;;;32.32;26.22;100416.47;6228740;22;20023;-62
2022/08/12 06:18:28;;;;;;;9.75;5.30;;;;;;;32.84;25.80;100416.84;6228540;22;20022;-64
2022/08/12 06:20:57;;;;;;;10.23;5.55;;;;;;;33.38;24.58;100409.34;6228777;22;20027;-63
2022/08/12 06:23:28;;;;;;;9.25;5.65;;;;;;;33.83;23.77;100409.59;6201918;22;20326;-62
2022/08/12 06:25:54;;;;;;;10.35;6.13;;;;;;;34.05;23.39;100418.94;6201390;22;20471;-62
2022/08/12 06:28:20;;;;;;;12.23;6.40;;;;;;;34.51;22.76;100417.13;6229085;22;20446;-61
2022/08/12 06:30:45;;;;;;;13.90;5.78;;;;;;;34.79;22.10;100416.25;6202143;22;20019;-69
2022/08/12 06:33:10;;;;;;;13.45;5.10;;;;;;;35.35;21.73;100415.31;6229122;22;20015;-69
2022/08/12 06:35:35;;;;;;;9.23;5.30;;;;;;;36.03;20.89;100419.63;6228484;22;20015;-62
2022/08/12 06:38:02;;;;;;;11.90;5.75;;;;;;;36.51;20.00;100415.25;6201987;22;20041;-62
2022/08/12 06:43:12;;;;;;;9.20;5.68;;;;;;;37.48;19.12;100423.38;6175796;22;20015;-69
2022/08/12 06:45:44;;;;;;;15.85;5.25;;;;;;;37.61;18.66;100410.94;6175874;22;20016;-70
2022/08/12 06:48:10;;;;;;;9.35;5.50;;;;;;;37.89;18.30;100423.69;6201423;22;20012;-68
2022/08/12 06:50:34;;;;;;;9.27;5.38;;;;;;;38.21;17.66;100426.34;6201121;22;20020;-69
2022/08/12 06:53:00;;;;;;;8.18;5.75;;;;;;;38.91;17.20;100427.66;6228361;22;20098;-68
2022/08/12 06:55:25;;;;;;;9.75;5.60;;;;;;;39.90;16.96;100427.91;6203064;22;20023;-69
2022/08/12 06:58:13;;;;;;;8.52;5.35;;;;;;;41.08;15.82;100433.72;6208251;22;20501;-69
2022/08/12 07:00:38;;;;;;;13.23;5.72;;;;;;;41.74;15.58;100422.78;6203560;22;20046;-69
2022/08/12 07:03:04;;;;;;;13.10;5.72;;;;;;;42.19;15.38;100420.59;6177807;22;20042;-69
2022/08/12 07:05:29;;;;;;;7.47;5.30;;;;;;;42.60;14.58;100423.66;6230643;22;20092;-62
2022/08/12 07:07:57;;;;;;;8.73;6.22;;;;;;;43.06;13.80;100419.03;6178419;22;20103;-62
2022/08/12 07:10:22;;;;;;;6.20;5.55;;;;;;;43.60;14.03;100423.16;6213408;22;20030;-62
2022/08/12 07:12:47;;;;;;;7.28;5.63;;;;;;;44.00;12.87;100413.13;6203414;22;20027;-63
2022/08/12 07:15:12;;;;;;;6.40;5.80;;;;;;;44.34;13.14;100418.28;6203144;22;20024;-63
2022/08/12 07:17:39;;;;;;;6.20;5.47;;;;;;;44.19;12.14;100424.25;6204484;22;20081;-70
2022/08/12 07:20:08;;;;;;;7.55;5.90;;;;;;;43.97;12.78;100416.56;6204349;22;20111;-70
2022/08/12 07:22:33;;;;;;;6.45;5.60;;;;;;;44.14;12.66;100416.75;6204353;22;20019;-69
2022/08/12 07:27:42;;;;;;;9.40;6.53;;;;;;;45.16;12.48;100425.66;6230825;22;20069;-69
2022/08/12 07:30:08;;;;;;;6.68;6.05;;;;;;;45.48;11.90;100425.38;6230330;22;20027;-70
2022/08/12 07:32:34;;;;;;;8.27;6.68;;;;;;;45.67;11.54;100422.34;6202993;22;20098;-70
2022/08/12 07:34:59;;;;;;;9.93;6.25;;;;;;;46.04;11.26;100426.69;6203421;22;20050;-70
2022/08/12 07:37:24;;;;;;;10.95;7.30;;;;;;;45.74;11.15;100424.69;6203182;22;20152;-69
2022/08/12 07:39:49;;;;;;;8.05;7.15;;;;;;;45.41;11.61;100433.44;6230104;22;20351;-69
2022/08/12 07:42:14;;;;;;;7.95;7.15;;;;;;;44.99;11.45;100423.53;6230254;22;20027;-68
2022/08/12 07:44:38;;;;;;;9.13;6.90;;;;;;;44.03;12.24;100418.09;6202816;22;20015;-69
2022/08/12 07:47:03;;;;;;;9.77;7.45;;;;;;;43.94;12.31;100417.16;6230830;22;20077;-72
2022/08/12 07:49:28;;;;;;;7.63;6.95;;;;;;;44.11;12.33;100422.19;6202859;22;20346;-70
2022/08/12 07:51:52;;;;;;;7.60;6.90;;;;;;;44.23;11.99;100419.66;6203363;22;20026;-69
2022/08/12 07:54:18;;;;;;;9.27;7.45;;;;;;;44.78;12.06;100425.22;6203490;22;20014;-69
2022/08/12 07:56:42;;;;;;;9.38;7.93;;;;;;;45.53;12.04;100424.44;6230245;22;20030;-69
2022/08/12 07:59:08;;;;;;;10.70;9.10;;;;;;;46.26;11.87;100420.13;6230368;22;20019;-63
2022/08/12 08:01:33;;;;;;;13.68;9.68;;;;;;;46.88;11.30;100420.66;6177534;22;20019;-63
2022/08/12 08:06:41;;;;;;;10.77;9.80;;;;;;;48.26;10.41;100422.28;6202980;22;20019;-61
2022/08/12 08:09:12;;;;;;;12.23;11.20;;;;;;;48.87;10.17;100425.53;6230375;22;20026;-63
2022/08/12 08:14:20;;;;;;;12.45;11.32;;;;;;;49.21;9.51;100413.91;6203152;22;20402;-62
2022/08/12 08:16:47;;;;;;;12.00;11.05;;;;;;;49.70;9.42;100411.97;6202867;22;20042;-63
2022/08/12 08:19:18;;;;;;;14.45;13.43;;;;;;;50.17;9.19;100414.38;6177494;22;20358;-62
2022/08/12 08:21:42;;;;;;;13.77;12.60;;;;;;;50.64;9.15;100408.16;6229918;22;20019;-62
2022/08/12 08:24:16;;;;;;;14.68;13.63;;;;;;;51.00;8.75;100404.38;6177106;22;20026;-62
2022/08/12 08:26:48;;;;;;;16.42;15.32;;;;;;;51.27;8.32;100456.69;6229804;22;20015;-63
2022/08/12 08:29:14;;;;;;;15.73;14.63;;;;;;;51.71;8.46;100460.34;6202739;22;20496;-63
2022/08/12 08:31:42;;;;;;;16.83;15.18;;;;;;;51.98;7.78;100465.16;6202195;22;20069;-62
2022/08/12 08:34:06;;;;;;;17.10;15.68;;;;;;;52.30;7.74;100470.81;6202281;22;20094;-69
2022/08/12 08:36:31;;;;;;;17.38;15.77;;;;;;;52.45;7.52;100442.31;6230897;22;20088;-69
2022/08/12 08:38:56;;;;;;;18.92;17.77;;;;;;;52.68;7.68;100453.03;6202532;22;20030;-69
2022/08/12 08:44:04;;;;;;;18.33;16.90;;;;;;;53.35;7.47;100453.63;6229725;22;20051;-68
2022/08/12 08:46:31;;;;;;;22.17;20.70;;;;;;;53.35;7.44;100457.31;6230008;22;20019;-69
2022/08/12 08:48:56;;;;;;;25.48;23.85;;;;;;;53.25;7.36;100450.19;6229585;22;20355;-69
2022/08/12 08:51:25;;;;;;;23.13;21.63;;;;;;;53.27;7.49;100447.81;6202587;22;20347;-69
2022/08/12 08:53:49;;;;;;;23.48;22.08;;;;;;;53.26;7.19;100439.63;6177076;22;20011;-70
2022/08/12 08:56:14;;;;;;;23.75;22.25;;;;;;;53.41;7.13;100474.91;6202597;22;20023;-69
2022/08/12 08:58:39;;;;;;;21.92;20.73;;;;;;;53.44;7.49;100437.09;6232322;22;20469;-72
2022/08/12 09:01:04;;;;;;;24.50;23.08;;;;;;;53.53;7.02;100451.94;6205011;22;20019;-71
2022/08/12 09:03:29;;;;;;;24.23;22.80;;;;;;;53.56;7.33;100449.16;6202585;22;20012;-70
2022/08/12 09:05:53;;;;;;;25.70;23.95;;;;;;;53.46;7.03;100466.06;6229932;22;20015;-70
2022/08/12 09:08:18;;;;;;;25.10;23.48;;;;;;;53.61;7.07;100440.31;6229811;22;20019;-71
2022/08/12 09:10:43;;;;;;;26.27;24.77;;;;;;;53.90;7.44;100440.81;6229882;22;20103;-69
2022/08/12 09:15:52;;;;;;;26.60;24.75;;;;;;;54.47;6.79;100442.53;6229862;22;20043;-71
2022/08/12 09:18:27;;;;;;;29.92;27.88;;;;;;;54.83;6.64;100432.44;6227895;22;20016;-71
2022/08/12 09:20:52;;;;;;;36.13;33.80;;;;;;;-143.58;100.00;61926.94;6229486;22;20030;-70
2022/08/12 09:23:17;;;;;;;36.58;34.40;;;;;;;-143.58;100.00;61926.94;6202301;22;20015;-70
2022/08/12 09:25:43;;;;;;;38.78;36.63;;;;;;;-143.58;100.00;61926.94;6202546;22;20026;-70
2022/08/12 09:28:10;;;;;;;37.35;35.35;;;;;;;55.55;6.21;100434.06;6229765;22;20043;-70
2022/08/12 09:30:36;;;;;;;38.85;36.17;;;;;;;55.64;6.24;100417.41;6229705;22;20039;-71
2022/08/12 09:33:00;;;;;;;38.63;36.70;;;;;;;55.91;5.94;100421.72;6152178;22;20015;-70
2022/08/12 09:35:32;;;;;;;40.05;37.92;;;;;;;56.26;5.84;100446.13;6202278;22;20019;-76
2022/08/12 09:37:57;;;;;;;46.67;44.42;;;;;;;56.26;5.84;100446.13;6202236;22;20103;-68
2022/08/12 09:40:24;;;;;;;41.75;39.47;;;;;;;55.74;5.53;100413.84;6176322;22;20019;-69
2022/08/12 09:45:33;;;;;;;35.70;33.88;;;;;;;55.19;6.39;100404.31;6201687;22;20028;-69
2022/08/12 09:48:00;;;;;;;39.80;37.65;;;;;;;55.66;6.25;100415.78;6229052;22;20016;-70
2022/08/12 09:50:25;;;;;;;46.13;43.05;;;;;;;55.99;5.78;100414.03;6228998;22;20016;-70
2022/08/12 09:53:17;;;;;;;43.55;41.25;;;;;;;57.03;5.60;100410.53;6229112;22;20025;-70
2022/08/12 09:55:46;;;;;;;52.70;50.15;;;;;;;55.93;5.60;100395.59;6229040;22;20031;-70
2022/08/12 09:58:10;;;;;;;42.38;40.17;;;;;;;54.77;6.09;100391.09;6176669;22;20469;-70
2022/08/12 10:00:35;;;;;;;43.75;41.65;;;;;;;54.63;6.19;100400.34;6201398;22;20521;-70
2022/08/12 10:03:05;;;;;;;50.25;47.50;;;;;;;55.11;6.19;100383.38;6228971;22;20016;-69
2022/08/12 10:05:37;;;;;;;44.20;42.05;;;;;;;55.01;5.89;100378.34;6186924;22;20022;-69
2022/08/12 10:08:04;;;;;;;44.10;41.63;;;;;;;55.10;5.92;100386.59;6228853;22;20030;-70
2022/08/12 10:10:28;;;;;;;38.00;35.97;;;;;;;54.73;6.30;100369.44;6228959;22;20016;-70
2022/08/12 10:15:43;;;;;;;29.98;28.38;;;;;;;53.84;6.42;100368.97;6228441;22;20054;-71
2022/08/12 10:18:08;;;;;;;31.33;29.63;;;;;;;53.59;6.92;100359.19;6201506;22;20020;-70
2022/08/12 10:20:32;;;;;;;32.83;31.02;;;;;;;53.62;6.21;100384.06;6201971;22;20026;-69
2022/08/12 10:22:58;;;;;;;31.35;29.60;;;;;;;53.83;6.27;100375.06;6228225;22;20026;-70
2022/08/12 10:30:51;;;;;;;22.08;20.73;;;;;;;49.31;8.89;100310.63;6229823;22;20022;-69
2022/08/12 10:33:15;;;;;;;15.48;14.35;;;;;;;46.33;10.00;100302.00;6202567;22;20447;-69
2022/08/12 10:35:42;;;;;;;13.15;11.93;;;;;;;43.98;12.05;100300.19;6238885;22;20027;-68
2022/08/12 10:38:08;;;;;;;10.88;9.82;;;;;;;41.99;13.23;100288.00;6183926;22;20073;-70
2022/08/12 10:40:33;;;;;;;8.02;7.40;;;;;;;40.33;14.91;100283.00;6201587;22;20069;-70
2022/08/12 10:45:41;;;;;;;;;;;;;;;38.96;15.10;100277.06;6177126;22;20015;-68
2022/08/12 10:48:05;;;;;;;7.70;6.90;;;;;;;37.11;17.21;100273.22;6228919;22;20353;-69
2022/08/12 10:50:30;;;;;;;10.20;6.03;;;;;;;36.15;18.58;100275.97;6201315;22;20450;-70
2022/08/12 10:52:55;;;;;;;9.23;6.68;;;;;;;35.38;19.52;100264.22;6228491;22;20086;-69
2022/08/12 10:55:19;;;;;;;6.40;5.25;;;;;;;34.72;19.37;100265.97;6229444;22;20015;-68
2022/08/12 10:57:45;;;;;;;6.18;5.60;;;;;;;34.10;20.17;100255.75;6201340;22;20538;-69
2022/08/12 11:00:10;;;;;;;7.13;5.47;;;;;;;33.59;20.58;100253.06;6200484;22;20016;-69
2022/08/12 11:02:34;;;;;;;11.73;4.70;;;;;;;33.13;21.21;100243.75;6229875;22;20077;-71
2022/08/12 11:04:59;;;;;;;6.60;4.30;;;;;;;32.73;21.93;100252.75;6228984;22;20020;-68
2022/08/12 11:07:25;;;;;;;6.63;4.85;;;;;;;32.39;22.52;100248.03;6201373;22;20047;-69
2022/08/12 11:09:50;;;;;;;6.85;4.65;;;;;;;32.08;22.94;100238.06;6228793;22;20020;-69
2022/08/12 11:12:15;;;;;;;6.97;4.40;;;;;;;31.79;23.36;100237.03;6176248;22;20414;-69
2022/08/12 11:14:41;;;;;;;4.97;4.47;;;;;;;31.52;23.78;100231.00;6228503;22;20022;-69
2022/08/12 11:17:08;;;;;;;5.53;5.03;;;;;;;31.28;23.73;100248.47;6229099;22;20023;-69
2022/08/12 11:19:38;;;;;;;5.82;4.50;;;;;;;31.04;23.66;100230.91;6228241;22;20019;-71
2022/08/12 11:22:04;;;;;;;10.90;5.97;;;;;;;30.76;25.20;100236.06;6201010;22;20016;-67
2022/08/12 11:24:29;;;;;;;8.13;5.05;;;;;;;30.53;25.29;100237.56;6228546;22;20451;-67
2022/08/12 11:26:54;;;;;;;7.30;4.68;;;;;;;30.37;25.21;100226.22;6201265;22;20355;-67
2022/08/12 11:29:21;;;;;;;7.25;4.22;;;;;;;30.19;25.14;100229.75;6176733;22;20339;-67
2022/08/12 11:31:46;;;;;;;9.10;5.50;;;;;;;30.08;25.62;100214.81;6228707;22;20023;-67
2022/08/12 11:34:11;;;;;;;12.25;8.75;;;;;;;29.94;26.31;100211.28;6228963;22;20019;-66
2022/08/12 11:36:36;;;;;;;7.20;4.70;;;;;;;29.77;25.58;100215.63;6150765;22;20020;-67
2022/08/12 11:39:02;;;;;;;6.72;4.70;;;;;;;29.66;26.39;100210.00;6201510;22;20382;-69
2022/08/12 11:41:27;;;;;;;11.10;5.18;;;;;;;29.56;26.85;100204.97;6201310;22;20081;-68
2022/08/12 11:43:51;;;;;;;5.22;4.15;;;;;;;29.49;26.55;100207.75;6203499;22;20015;-63
2022/08/12 11:46:20;;;;;;;7.53;4.47;;;;;;;29.44;26.17;100212.22;6202865;22;20431;-63
2022/08/12 11:48:44;;;;;;;11.88;5.10;;;;;;;29.28;26.82;100202.53;6178180;22;20027;-64
2022/08/12 11:51:09;;;;;;;6.82;4.13;;;;;;;29.12;26.45;100203.84;6230189;22;20019;-64
2022/08/12 11:53:35;;;;;;;8.70;4.00;;;;;;;28.99;26.31;100209.41;6203176;22;20480;-66
2022/08/12 11:56:01;;;;;;;4.95;3.90;;;;;;;28.85;26.59;100205.84;6203104;22;20054;-65
2022/08/12 11:58:26;;;;;;;7.10;4.88;;;;;;;28.79;26.97;100195.69;6230098;22;20090;-71
2022/08/12 12:00:52;;;;;;;7.53;3.90;;;;;;;28.69;28.01;100187.03;6229294;22;20050;-70
2022/08/12 12:03:17;;;;;;;4.85;3.97;;;;;;;28.63;28.43;100187.91;6229240;22;20054;-70
2022/08/12 12:05:41;;;;;;;10.75;4.57;;;;;;;28.60;28.12;100179.25;6203525;22;20020;-71
2022/08/12 12:08:06;;;;;;;8.30;4.00;;;;;;;28.53;28.60;100184.75;6203199;22;20015;-66
2022/08/12 12:10:31;;;;;;;4.75;4.07;;;;;;;28.48;28.29;100179.03;6231018;22;20015;-68
2022/08/12 12:12:58;;;;;;;8.30;4.70;;;;;;;28.38;28.40;100182.22;6230572;22;20098;-67
2022/08/12 12:15:23;;;;;;;6.55;4.43;;;;;;;28.31;28.00;100183.28;6230316;22;20105;-67
2022/08/12 12:17:50;;;;;;;5.97;3.80;;;;;;;28.23;27.69;100178.84;6178209;22;20019;-68
2022/08/12 12:20:14;;;;;;;12.90;4.35;;;;;;;28.17;27.68;100176.94;6178940;22;20065;-69
2022/08/12 12:22:40;;;;;;;4.85;4.22;;;;;;;28.13;28.73;100178.38;6231409;22;20085;-66
2022/08/12 12:25:07;;;;;;;5.78;4.43;;;;;;;28.09;28.72;100180.72;6230505;22;20066;-67
2022/08/12 12:27:49;;;;;;;6.90;4.10;;;;;;;28.14;28.66;100180.09;6203149;22;20062;-68
2022/08/12 12:30:14;;;;;;;4.95;3.75;;;;;;;28.03;28.26;100169.75;6206805;22;20470;-65
2022/08/12 12:32:39;;;;;;;4.75;4.22;;;;;;;27.96;28.34;100169.75;6210571;22;20077;-70
2022/08/12 12:35:04;;;;;;;4.13;3.70;;;;;;;27.91;28.25;100168.69;6203411;22;20016;-65
2022/08/12 12:37:29;;;;;;;8.40;4.20;;;;;;;27.86;29.26;100161.09;6230344;22;20500;-71
2022/08/12 12:39:56;;;;;;;11.73;5.03;;;;;;;27.85;28.38;100167.63;6232686;22;20450;-72
2022/08/12 12:42:21;;;;;;;8.20;4.78;;;;;;;27.77;28.38;100165.91;6213306;22;20026;-70
2022/08/12 12:44:46;;;;;;;11.82;4.25;;;;;;;27.75;28.66;100154.34;6204451;22;20020;-72
2022/08/12 12:47:10;;;;;;;8.25;3.72;;;;;;;27.73;28.09;100153.72;6178530;22;20081;-69
2022/08/12 12:49:35;;;;;;;6.38;3.80;;;;;;;27.67;27.71;100150.94;6230477;22;20026;-64
2022/08/12 12:52:00;;;;;;;6.88;3.85;;;;;;;27.58;27.85;100158.50;6230129;22;20019;-67
2022/08/12 12:54:24;;;;;;;6.78;4.93;;;;;;;27.50;29.12;100150.47;6229635;22;20050;-69
2022/08/12 12:56:53;;;;;;;5.40;3.70;;;;;;;27.44;29.38;100154.00;6230668;22;20019;-68
2022/08/12 12:59:19;;;;;;;4.80;3.95;;;;;;;27.36;28.72;100152.31;6202469;22;20016;-68
2022/08/12 13:01:44;;;;;;;4.65;4.15;;;;;;;27.29;29.66;100154.19;6229901;22;20843;-68
2022/08/12 13:04:10;;;;;;;4.68;3.65;;;;;;;27.25;28.98;100157.53;6229613;22;20342;-68
2022/08/12 13:06:35;;;;;;;4.57;4.05;;;;;;;27.19;29.46;100152.91;6229797;22;20015;-68
2022/08/12 13:09:00;;;;;;;5.75;4.00;;;;;;;27.16;29.79;100154.16;6202648;22;20065;-68